createdAt,value
2023-05-10T00:00:55.876Z,92.8349
2023-05-10T00:01:56.873Z,92.6842
2023-05-10T00:02:58.366Z,92.2155
2023-05-10T00:05:59.952Z,92.2316
2023-05-10T00:12:05.393Z,93.0865
2023-05-10T00:13:06.604Z,92.4582
2023-05-10T00:14:07.046Z,92.6309
2023-05-10T00:15:08.390Z,92.6120
2023-05-10T00:16:08.793Z,92.0762
2023-05-10T00:17:08.826Z,92.4500
2023-05-10T00:18:09.512Z,92.5513
2023-05-10T00:19:09.701Z,92.7357
2023-05-10T00:20:10.126Z,92.5464
2023-05-10T00:21:10.334Z,92.5993
2023-05-10T00:22:11.549Z,92.7230
2023-05-10T00:23:12.935Z,92.7014
2023-05-10T00:24:13.385Z,92.7129
2023-05-10T00:25:13.331Z,92.8313
2023-05-10T00:26:13.292Z,93.0002
2023-05-10T00:27:14.299Z,92.7743
2023-05-10T00:28:15.738Z,92.4909
2023-05-10T00:30:16.547Z,92.3916
2023-05-10T00:31:16.726Z,92.6662
2023-05-10T00:32:17.604Z,92.9008
2023-05-10T00:33:17.881Z,92.2519
2023-05-10T00:34:19.132Z,92.3524
2023-05-10T00:35:20.241Z,91.7960
2023-05-10T00:36:20.841Z,91.3317
2023-05-10T00:37:21.119Z,91.8665
2023-05-10T00:38:21.934Z,92.2103
2023-05-10T00:39:21.989Z,92.3620
2023-05-10T00:40:23.338Z,92.6027
2023-05-10T00:41:23.812Z,92.9672
2023-05-10T00:42:24.452Z,92.9685
2023-05-10T00:43:24.805Z,93.2389
2023-05-10T00:44:25.697Z,93.2684
2023-05-10T00:45:26.177Z,93.3137
2023-05-10T00:46:26.483Z,93.2993
2023-05-10T00:51:30.059Z,93.0705
2023-05-10T00:52:31.148Z,92.9931
2023-05-10T00:53:32.574Z,93.0614
2023-05-10T00:54:32.446Z,92.9411
2023-05-10T00:55:33.659Z,92.8408
2023-05-10T00:56:34.886Z,92.4594
2023-05-10T00:57:34.909Z,92.5372
2023-05-10T00:58:36.146Z,92.4734
2023-05-10T00:59:37.417Z,92.4298
2023-05-10T01:00:37.390Z,92.5692
2023-05-10T01:01:38.881Z,92.5491
2023-05-10T01:02:39.100Z,92.5639
2023-05-10T01:03:40.020Z,92.4675
2023-05-10T01:04:40.140Z,92.3769
2023-05-10T01:05:40.305Z,92.5800
2023-05-10T01:06:41.626Z,92.6933
2023-05-10T01:07:41.950Z,92.3829
2023-05-10T01:08:43.307Z,92.0461
2023-05-10T01:09:44.788Z,92.1597
2023-05-10T01:10:46.087Z,92.1243
2023-05-10T01:11:48.172Z,92.2458
2023-05-10T01:12:48.861Z,92.4596
2023-05-10T01:13:49.288Z,92.6702
2023-05-10T01:14:49.547Z,92.8340
2023-05-10T01:15:51.248Z,92.6945
2023-05-10T01:16:51.527Z,92.5084
2023-05-10T01:17:51.795Z,92.4395
2023-05-10T01:18:51.842Z,92.1842
2023-05-10T01:19:52.069Z,92.2286
2023-05-10T01:20:52.572Z,92.3508
2023-05-10T01:21:53.720Z,92.3674
2023-05-10T01:22:55.214Z,92.6834
2023-05-10T01:23:56.205Z,92.5019
2023-05-10T01:24:57.578Z,92.0996
2023-05-10T01:25:57.631Z,91.8895
2023-05-10T01:26:59.025Z,91.9902
2023-05-10T01:28:00.333Z,91.9306
2023-05-10T01:29:02.024Z,92.0467
2023-05-10T01:30:14.840Z,92.2468
2023-05-10T01:31:03.190Z,91.7027
2023-05-10T01:32:03.498Z,91.7432
2023-05-10T01:33:04.942Z,92.0454
2023-05-10T01:34:05.198Z,92.2581
2023-05-10T01:35:05.299Z,92.2087
2023-05-10T01:36:06.530Z,92.2033
2023-05-10T01:37:07.310Z,91.9683
2023-05-10T01:38:07.726Z,92.0151
2023-05-10T01:39:07.974Z,92.2565
2023-05-10T01:40:08.049Z,92.2502
2023-05-10T01:41:08.785Z,92.2406
2023-05-10T01:42:09.376Z,91.8711
2023-05-10T01:43:09.752Z,91.6970
2023-05-10T01:44:10.164Z,91.8479
2023-05-10T01:45:10.801Z,91.9922
2023-05-10T01:46:11.022Z,91.9498
2023-05-10T01:47:11.803Z,91.6114
2023-05-10T01:48:12.379Z,91.4830
2023-05-10T01:49:13.112Z,91.5183
2023-05-10T01:50:13.433Z,91.9180
2023-05-10T01:51:14.157Z,92.1072
2023-05-10T01:52:15.657Z,92.0927
2023-05-10T01:53:16.245Z,92.2444
2023-05-10T01:54:16.449Z,92.4276
2023-05-10T01:55:16.828Z,92.2823
2023-05-10T01:56:17.202Z,92.1925
2023-05-10T01:57:17.491Z,92.3873
2023-05-10T01:58:17.460Z,92.7331
2023-05-10T01:59:17.671Z,92.7136
2023-05-10T02:00:18.084Z,92.7090
2023-05-10T02:01:19.166Z,92.3347
2023-05-10T02:02:19.452Z,92.3568
2023-05-10T02:03:20.461Z,92.4273
2023-05-10T02:04:21.857Z,92.5777
2023-05-10T02:05:22.385Z,92.6065
2023-05-10T02:06:22.677Z,92.3377
2023-05-10T02:07:22.857Z,92.1338
2023-05-10T02:08:23.391Z,92.4356
2023-05-10T02:09:23.846Z,92.6932
2023-05-10T02:10:24.748Z,93.0237
2023-05-10T02:11:25.153Z,93.2776
2023-05-10T02:12:25.877Z,93.3949
2023-05-10T02:13:26.377Z,93.3931
2023-05-10T02:14:28.031Z,93.4039
2023-05-10T02:15:28.716Z,93.4491
2023-05-10T02:16:30.528Z,93.2900
2023-05-10T02:18:30.298Z,93.2711
2023-05-10T02:19:31.108Z,93.5093
2023-05-10T02:20:32.092Z,93.4321
2023-05-10T02:21:32.560Z,93.4147
2023-05-10T02:22:33.809Z,93.3838
2023-05-10T02:23:35.156Z,93.2893
2023-05-10T02:24:36.129Z,93.2523
2023-05-10T02:25:38.533Z,93.4154
2023-05-10T02:26:38.391Z,93.4593
2023-05-10T02:27:38.933Z,93.4306
2023-05-10T02:28:39.102Z,93.3371
2023-05-10T02:29:40.387Z,93.4273
2023-05-10T02:30:41.251Z,93.4155
2023-05-10T02:31:42.919Z,93.3414
2023-05-10T02:32:44.332Z,93.4167
2023-05-10T02:33:44.051Z,93.6030
2023-05-10T02:34:45.099Z,93.6581
2023-05-10T02:35:45.632Z,93.6604
2023-05-10T02:36:45.844Z,93.5156
2023-05-10T02:37:47.138Z,93.3599
2023-05-10T02:38:47.804Z,93.3139
2023-05-10T02:39:48.556Z,93.3046
2023-05-10T02:40:49.643Z,93.2278
2023-05-10T02:41:50.668Z,93.3968
2023-05-10T02:42:51.393Z,93.2730
2023-05-10T02:43:52.842Z,93.1613
2023-05-10T02:44:52.529Z,93.1286
2023-05-10T02:45:53.269Z,93.1678
2023-05-10T02:46:54.791Z,93.3970
2023-05-10T02:47:55.296Z,93.4561
2023-05-10T02:48:55.260Z,93.3181
2023-05-10T02:49:56.106Z,93.1923
2023-05-10T02:50:55.802Z,93.0457
2023-05-10T02:51:57.333Z,93.1621
2023-05-10T02:52:58.123Z,93.2530
2023-05-10T02:53:58.351Z,93.3559
2023-05-10T02:54:58.948Z,93.4531
2023-05-10T02:56:01.158Z,93.4182
2023-05-10T02:57:02.402Z,93.3917
2023-05-10T02:58:02.034Z,93.4038
2023-05-10T02:59:02.279Z,93.4998
2023-05-10T03:00:02.874Z,93.5409
2023-05-10T03:01:04.801Z,93.6126
2023-05-10T03:02:05.732Z,93.6607
2023-05-10T03:03:05.759Z,93.6815
2023-05-10T03:04:06.632Z,93.6265
2023-05-10T03:05:06.877Z,93.6520
2023-05-10T03:06:07.722Z,93.7581
2023-05-10T03:07:08.229Z,93.6982
2023-05-10T03:08:08.697Z,93.6830
2023-05-10T03:09:11.273Z,93.6102
2023-05-10T03:10:10.181Z,93.6822
2023-05-10T03:11:10.338Z,93.7372
2023-05-10T03:12:12.077Z,93.6486
2023-05-10T03:13:12.847Z,93.7094
2023-05-10T03:14:14.508Z,93.7784
2023-05-10T03:16:44.925Z,93.8370
2023-05-10T03:17:43.684Z,93.7668
2023-05-10T03:18:43.837Z,93.5695
2023-05-10T03:19:44.668Z,93.3847
2023-05-10T03:20:45.096Z,93.4604
2023-05-10T03:21:45.489Z,93.5069
2023-05-10T03:22:46.056Z,93.4454
2023-05-10T03:23:46.940Z,93.2252
2023-05-10T03:24:47.830Z,93.3003
2023-05-10T03:25:48.448Z,93.5141
2023-05-10T03:26:48.533Z,93.5288
2023-05-10T03:27:49.665Z,93.5149
2023-05-10T03:28:50.631Z,93.4831
2023-05-10T03:29:51.033Z,93.4248
2023-05-10T03:30:51.668Z,93.4275
2023-05-10T03:31:52.248Z,93.5018
2023-05-10T03:32:52.645Z,93.4456
2023-05-10T03:33:53.239Z,93.4340
2023-05-10T03:34:55.671Z,93.5198
2023-05-10T03:37:57.499Z,93.9710
2023-05-10T03:38:58.375Z,93.8425
2023-05-10T03:39:57.353Z,93.7456
2023-05-10T03:40:58.849Z,93.7007
2023-05-10T03:41:58.549Z,93.7944
2023-05-10T03:42:59.037Z,93.8876
2023-05-10T03:44:00.057Z,93.9509
2023-05-10T03:44:59.880Z,94.0711
2023-05-10T03:46:00.397Z,94.1622
2023-05-10T03:47:02.272Z,94.1829
2023-05-10T03:48:01.997Z,94.1266
2023-05-10T03:49:03.292Z,94.1422
2023-05-10T03:50:02.685Z,94.1609
2023-05-10T03:51:03.871Z,94.0438
2023-05-10T03:52:05.489Z,94.0544
2023-05-10T03:54:06.133Z,94.2549
2023-05-10T03:55:05.980Z,94.2608
2023-05-10T03:56:06.732Z,94.2829
2023-05-10T03:57:07.322Z,94.2619
2023-05-10T03:58:07.583Z,94.2051
2023-05-10T03:59:07.827Z,94.2577
2023-05-10T04:00:11.265Z,94.2730
2023-05-10T04:01:09.735Z,94.3419
2023-05-10T04:02:10.601Z,94.4362
2023-05-10T04:03:11.044Z,94.4792
2023-05-10T04:04:11.820Z,94.5033
2023-05-10T04:09:14.869Z,94.4541
2023-05-10T04:10:16.026Z,94.4057
2023-05-10T04:11:16.307Z,94.3750
2023-05-10T04:12:16.359Z,94.3430
2023-05-10T04:13:18.002Z,94.3021
2023-05-10T04:14:18.391Z,94.0910
2023-05-10T04:15:19.163Z,94.0560
2023-05-10T04:16:19.287Z,93.7942
2023-05-10T04:17:21.724Z,93.5608
2023-05-10T04:18:23.011Z,93.4427
2023-05-10T04:19:23.700Z,93.4017
2023-05-10T04:20:24.429Z,93.4534
2023-05-10T04:21:25.294Z,93.5189
2023-05-10T04:22:26.248Z,93.5558
2023-05-10T04:23:27.593Z,93.5128
2023-05-10T04:24:29.191Z,93.4251
2023-05-10T04:25:30.322Z,93.2981
2023-05-10T04:26:30.880Z,93.2943
2023-05-10T04:27:31.761Z,93.5368
2023-05-10T04:28:31.925Z,93.2995
2023-05-10T04:29:32.397Z,93.1130
2023-05-10T04:30:32.758Z,93.0259
2023-05-10T04:34:36.517Z,93.2165
2023-05-10T04:35:38.505Z,93.1809
2023-05-10T04:39:42.492Z,93.1948
2023-05-10T04:40:42.161Z,93.0683
2023-05-10T04:41:42.457Z,93.0260
2023-05-10T04:42:42.589Z,93.0367
2023-05-10T04:43:43.617Z,92.7959
2023-05-10T04:44:44.716Z,92.6404
2023-05-10T04:50:48.962Z,92.0927
2023-05-10T04:51:49.544Z,92.2342
2023-05-10T04:52:49.943Z,92.0957
2023-05-10T04:54:05.254Z,91.9591
2023-05-10T04:54:56.409Z,91.4282
2023-05-10T04:55:57.881Z,91.5402
2023-05-10T04:57:00.066Z,91.6905
2023-05-10T04:58:02.162Z,91.6357
2023-05-10T04:59:03.558Z,91.6026
2023-05-10T05:00:04.315Z,91.6481
2023-05-10T05:01:05.317Z,91.8443
2023-05-10T05:02:06.431Z,91.9368
2023-05-10T05:03:08.843Z,91.8597
2023-05-10T05:04:10.486Z,91.5857
2023-05-10T05:05:11.255Z,91.7133
2023-05-10T05:06:13.472Z,91.9012
2023-05-10T05:07:14.877Z,91.8762
2023-05-10T05:08:15.793Z,92.1236
2023-05-10T05:09:16.527Z,92.2001
2023-05-10T05:10:18.295Z,92.0552
2023-05-10T05:11:18.508Z,91.4924
2023-05-10T05:12:19.313Z,91.3659
2023-05-10T05:13:19.835Z,91.2684
2023-05-10T05:14:19.939Z,91.1153
2023-05-10T05:15:20.125Z,90.5289
2023-05-10T05:16:20.983Z,90.8024
2023-05-10T05:22:26.648Z,90.8319
2023-05-10T05:23:28.080Z,90.9996
2023-05-10T05:24:28.396Z,90.9724
2023-05-10T05:25:28.814Z,90.7654
2023-05-10T05:26:29.355Z,90.9464
2023-05-10T05:27:31.189Z,91.1312
2023-05-10T05:28:32.294Z,91.3260
2023-05-10T05:29:33.667Z,91.6695
2023-05-10T05:30:35.144Z,91.9659
2023-05-10T05:31:36.732Z,91.8476
2023-05-10T05:32:38.512Z,91.7989
2023-05-10T05:33:39.234Z,91.6305
2023-05-10T05:34:39.962Z,91.9288
2023-05-10T05:35:41.301Z,91.7017
2023-05-10T05:36:42.615Z,91.7148
2023-05-10T05:37:42.998Z,91.7985
2023-05-10T05:38:43.528Z,91.5528
2023-05-10T05:39:44.226Z,91.3409
2023-05-10T05:40:44.918Z,91.5926
2023-05-10T05:41:44.954Z,91.6343
2023-05-10T05:42:45.666Z,91.2723
2023-05-10T05:43:45.845Z,90.8858
2023-05-10T05:44:50.651Z,91.1004
2023-05-10T05:45:48.114Z,91.4179
2023-05-10T05:48:48.071Z,90.8101
2023-05-10T05:49:52.451Z,90.6903
2023-05-10T05:50:51.053Z,90.6605
2023-05-10T05:51:53.457Z,90.7549
2023-05-10T05:53:54.102Z,90.6662
2023-05-10T05:54:54.345Z,90.4672
2023-05-10T05:55:54.710Z,90.1096
2023-05-10T05:56:57.660Z,89.9799
2023-05-10T05:59:58.490Z,90.4487
2023-05-10T06:03:59.862Z,90.2411
2023-05-10T06:04:59.890Z,90.0450
2023-05-10T06:06:01.208Z,89.9993
2023-05-10T06:07:03.154Z,89.8005
2023-05-10T06:08:04.708Z,89.9443
2023-05-10T06:09:05.324Z,90.3021
2023-05-10T06:10:05.618Z,90.2331
2023-05-10T06:11:05.820Z,90.2714
2023-05-10T06:12:07.959Z,89.9202
2023-05-10T06:13:10.445Z,90.2696
2023-05-10T06:14:11.361Z,90.4005
2023-05-10T06:15:13.759Z,90.4042
2023-05-10T06:16:15.070Z,90.4287
2023-05-10T06:17:16.239Z,90.2153
2023-05-10T06:18:16.908Z,90.0764
2023-05-10T06:19:20.693Z,90.1613
2023-05-10T06:21:18.842Z,90.0690
2023-05-10T06:22:19.240Z,89.9348
2023-05-10T06:23:20.768Z,88.7546
2023-05-10T06:24:21.131Z,88.0156
2023-05-10T06:25:22.332Z,87.2364
2023-05-10T06:26:23.969Z,87.7911
2023-05-10T06:27:24.882Z,88.2301
2023-05-10T06:28:26.544Z,88.1946
2023-05-10T06:29:27.191Z,88.4507
2023-05-10T06:32:27.596Z,86.8217
2023-05-10T06:33:28.261Z,85.6355
2023-05-10T06:34:29.548Z,85.3272
2023-05-10T06:35:30.650Z,85.5383
2023-05-10T06:36:31.384Z,85.6276
2023-05-10T06:37:31.960Z,86.1449
2023-05-10T06:38:32.556Z,85.7634
2023-05-10T06:39:33.198Z,86.7039
2023-05-10T06:40:33.695Z,85.7314
2023-05-10T06:41:34.286Z,86.0628
2023-05-10T06:42:34.963Z,86.2257
2023-05-10T06:43:35.530Z,86.9011
2023-05-10T06:44:35.976Z,87.3463
2023-05-10T06:45:37.094Z,87.3312
2023-05-10T06:46:37.682Z,87.6107
2023-05-10T06:47:40.678Z,87.7004
2023-05-10T06:48:41.321Z,87.4474
2023-05-10T06:49:41.669Z,87.7728
2023-05-10T06:50:42.333Z,87.9717
2023-05-10T06:51:43.041Z,87.8526
2023-05-10T06:52:44.054Z,88.4341
2023-05-10T06:53:44.706Z,88.6986
2023-05-10T06:54:45.127Z,88.2830
2023-05-10T06:55:46.232Z,87.6719
2023-05-10T06:56:47.092Z,87.8784
2023-05-10T06:57:47.339Z,86.8618
2023-05-10T06:58:48.092Z,87.2861
2023-05-10T06:59:49.064Z,87.4244
2023-05-10T07:00:49.862Z,87.3561
2023-05-10T07:01:50.295Z,87.6618
2023-05-10T07:02:51.285Z,87.4769
2023-05-10T07:03:52.153Z,87.8043
2023-05-10T07:04:53.070Z,87.6885
2023-05-10T07:05:54.015Z,87.7322
2023-05-10T07:06:54.191Z,87.2799
2023-05-10T07:07:55.404Z,87.4669
2023-05-10T07:08:55.844Z,87.4041
2023-05-10T07:09:56.384Z,87.4879
2023-05-10T07:10:57.095Z,87.5409
2023-05-10T07:11:58.081Z,86.8567
2023-05-10T07:12:58.727Z,86.6347
2023-05-10T07:13:59.006Z,86.1105
2023-05-10T07:14:59.473Z,85.8815
2023-05-10T07:16:00.723Z,85.7210
2023-05-10T07:17:01.696Z,85.7574
2023-05-10T07:18:02.464Z,86.0578
2023-05-10T07:19:03.327Z,85.8845
2023-05-10T07:20:04.341Z,86.3276
2023-05-10T07:21:04.957Z,86.6146
2023-05-10T07:22:05.761Z,86.8393
2023-05-10T07:23:06.518Z,86.0704
2023-05-10T07:24:06.849Z,85.4657
2023-05-10T07:25:07.270Z,85.5638
2023-05-10T07:26:07.869Z,85.3699
2023-05-10T07:27:08.612Z,85.6059
2023-05-10T07:28:09.253Z,85.5840
2023-05-10T07:29:09.640Z,85.4037
2023-05-10T07:30:10.261Z,85.0316
2023-05-10T07:31:11.191Z,84.9169
2023-05-10T07:32:12.138Z,85.3594
2023-05-10T07:33:13.006Z,85.2780
2023-05-10T07:34:13.610Z,85.1024
2023-05-10T07:35:14.394Z,85.6484
2023-05-10T07:36:15.094Z,85.3019
2023-05-10T07:37:15.659Z,85.3621
2023-05-10T07:38:16.264Z,85.6301
2023-05-10T07:39:26.593Z,85.2986
2023-05-10T07:40:21.288Z,85.1205
2023-05-10T07:41:21.635Z,85.0190
2023-05-10T07:42:21.786Z,85.1261
2023-05-10T07:43:22.639Z,85.4331
2023-05-10T07:44:23.788Z,85.7933
2023-05-10T07:45:24.152Z,86.1717
2023-05-10T07:46:24.532Z,85.9660
2023-05-10T07:47:25.056Z,86.1775
2023-05-10T07:48:25.731Z,85.4723
2023-05-10T07:49:26.727Z,84.8829
2023-05-10T07:50:27.902Z,85.2384
2023-05-10T07:51:29.120Z,85.1225
2023-05-10T07:52:30.277Z,85.0428
2023-05-10T07:53:31.379Z,85.7319
2023-05-10T07:54:31.919Z,85.5699
2023-05-10T07:55:32.907Z,85.2276
2023-05-10T07:56:33.515Z,84.3607
2023-05-10T07:57:33.701Z,84.3810
2023-05-10T07:58:34.825Z,83.9685
2023-05-10T07:59:35.091Z,83.2018
2023-05-10T08:00:35.837Z,82.8682
2023-05-10T08:01:36.404Z,83.1125
2023-05-10T08:02:37.698Z,82.2966
2023-05-10T08:03:38.044Z,82.0593
2023-05-10T08:04:39.323Z,82.3502
2023-05-10T08:05:39.157Z,82.4399
2023-05-10T08:06:39.779Z,82.4687
2023-05-10T08:07:40.831Z,82.5874
2023-05-10T08:08:41.555Z,82.3931
2023-05-10T08:09:42.224Z,81.9507
2023-05-10T08:10:42.820Z,82.1059
2023-05-10T08:11:44.062Z,82.3300
2023-05-10T08:12:44.679Z,81.9088
2023-05-10T08:13:45.156Z,82.1610
2023-05-10T08:14:46.211Z,82.0494
2023-05-10T08:15:46.852Z,82.0477
2023-05-10T08:16:47.909Z,81.5056
2023-05-10T08:17:48.405Z,81.2458
2023-05-10T08:18:48.553Z,81.7779
2023-05-10T08:19:48.548Z,82.1106
2023-05-10T08:20:49.588Z,82.1712
2023-05-10T08:21:50.768Z,82.1240
2023-05-10T08:22:51.955Z,82.1998
2023-05-10T08:23:51.569Z,81.3989
2023-05-10T08:24:52.211Z,81.5262
2023-05-10T08:25:53.380Z,81.3102
2023-05-10T08:26:53.738Z,81.7578
2023-05-10T08:27:54.193Z,81.8523
2023-05-10T08:28:54.718Z,80.1643
2023-05-10T08:29:54.874Z,80.0983
2023-05-10T08:30:55.202Z,80.6119
2023-05-10T08:31:56.217Z,80.1934
2023-05-10T08:32:56.830Z,79.8394
2023-05-10T08:33:57.718Z,79.4213
2023-05-10T08:34:58.470Z,80.0445
2023-05-10T08:35:58.245Z,79.6602
2023-05-10T08:36:58.684Z,79.8209
2023-05-10T08:37:58.867Z,79.5265
2023-05-10T08:38:59.327Z,78.3415
2023-05-10T08:39:59.528Z,77.6249
2023-05-10T08:41:00.434Z,77.9899
2023-05-10T08:42:00.839Z,78.1160
2023-05-10T08:43:01.700Z,78.8866
2023-05-10T08:44:02.405Z,78.5481
2023-05-10T08:45:03.359Z,79.0044
2023-05-10T08:46:03.972Z,78.1996
2023-05-10T08:47:04.082Z,77.7271
2023-05-10T08:48:04.981Z,77.3081
2023-05-10T08:49:05.806Z,78.0757
2023-05-10T08:50:06.396Z,77.7354
2023-05-10T08:51:07.163Z,76.8389
2023-05-10T08:52:07.958Z,76.5531
2023-05-10T08:53:08.332Z,76.8654
2023-05-10T08:54:08.946Z,77.5032
2023-05-10T08:55:09.600Z,77.3285
2023-05-10T08:56:10.308Z,77.3003
2023-05-10T08:57:11.386Z,76.9452
2023-05-10T08:58:12.133Z,76.5428
2023-05-10T08:59:12.839Z,76.8790
2023-05-10T09:00:13.602Z,76.1120
2023-05-10T09:01:14.201Z,76.0350
2023-05-10T09:02:16.619Z,76.0266
2023-05-10T09:03:15.394Z,76.7656
2023-05-10T09:04:16.173Z,76.2749
2023-05-10T09:05:16.690Z,75.7759
2023-05-10T09:06:16.977Z,76.2168
2023-05-10T09:07:17.545Z,75.9937
2023-05-10T09:08:18.016Z,75.3814
2023-05-10T09:09:18.780Z,75.7826
2023-05-10T09:10:19.361Z,76.0167
2023-05-10T09:11:19.960Z,75.7306
2023-05-10T09:12:20.477Z,76.3048
2023-05-10T09:13:21.427Z,76.6130
2023-05-10T09:14:22.120Z,76.1160
2023-05-10T09:15:22.780Z,75.9292
2023-05-10T09:16:22.877Z,76.2999
2023-05-10T09:17:23.826Z,76.5485
2023-05-10T09:18:27.300Z,76.5946
2023-05-10T09:19:24.861Z,76.3370
2023-05-10T09:20:24.867Z,76.2237
2023-05-10T09:21:25.291Z,76.3303
2023-05-10T09:22:26.011Z,76.1718
2023-05-10T09:23:26.484Z,76.2922
2023-05-10T09:24:27.377Z,76.4971
2023-05-10T09:25:28.051Z,77.1473
2023-05-10T09:26:28.829Z,77.5381
2023-05-10T09:27:29.318Z,77.2275
2023-05-10T09:28:30.057Z,77.2601
2023-05-10T09:29:30.315Z,76.7521
2023-05-10T09:30:31.183Z,77.1081
2023-05-10T09:31:32.461Z,77.1897
2023-05-10T09:32:33.063Z,77.8232
2023-05-10T09:33:33.847Z,77.2163
2023-05-10T09:34:34.522Z,76.4405
2023-05-10T09:35:34.841Z,75.7494
2023-05-10T09:36:35.358Z,75.5629
2023-05-10T09:37:36.236Z,75.7098
2023-05-10T09:38:36.747Z,75.3767
2023-05-10T09:39:37.186Z,75.1322
2023-05-10T09:40:37.803Z,75.5215
2023-05-10T09:41:38.388Z,76.0541
2023-05-10T09:42:39.007Z,76.8923
2023-05-10T09:43:39.390Z,77.2483
2023-05-10T09:44:40.074Z,77.8367
2023-05-10T09:45:41.066Z,76.9612
2023-05-10T09:46:42.085Z,76.3522
2023-05-10T09:47:42.539Z,77.1117
2023-05-10T09:48:43.322Z,76.3239
2023-05-10T09:49:43.828Z,74.8681
2023-05-10T09:50:44.522Z,75.0411
2023-05-10T09:51:45.255Z,75.3315
2023-05-10T09:52:45.935Z,75.7991
2023-05-10T09:53:46.222Z,76.3086
2023-05-10T09:54:46.807Z,76.3041
2023-05-10T09:55:47.423Z,76.3359
2023-05-10T09:56:47.536Z,76.6241
2023-05-10T09:57:48.631Z,76.1104
2023-05-10T09:58:49.112Z,75.0039
2023-05-10T09:59:49.597Z,74.7031
2023-05-10T10:00:50.463Z,74.7412
2023-05-10T10:01:51.734Z,74.8105
2023-05-10T10:02:52.350Z,74.1585
2023-05-10T10:03:53.226Z,74.7979
2023-05-10T10:04:54.014Z,74.4739
2023-05-10T10:05:54.291Z,74.6133
2023-05-10T10:06:55.036Z,73.2716
2023-05-10T10:07:55.524Z,73.7392
2023-05-10T10:08:58.462Z,74.2006
2023-05-10T10:09:59.674Z,74.0700
2023-05-10T10:11:00.169Z,73.8027
2023-05-10T10:12:00.715Z,73.4541
2023-05-10T10:13:01.218Z,72.7537
2023-05-10T10:14:01.683Z,73.4646
2023-05-10T10:15:02.224Z,72.1625
2023-05-10T10:16:02.358Z,73.0853
2023-05-10T10:17:09.100Z,71.7622
2023-05-10T10:18:09.215Z,72.2952
2023-05-10T10:19:09.098Z,71.9950
2023-05-10T10:20:11.987Z,72.0269
2023-05-10T10:21:09.615Z,72.1720
2023-05-10T10:22:10.251Z,71.8837
2023-05-10T10:23:10.867Z,71.1825
2023-05-10T10:24:11.213Z,71.2551
2023-05-10T10:25:11.738Z,70.3520
2023-05-10T10:26:12.886Z,70.8399
2023-05-10T10:27:13.415Z,71.3073
2023-05-10T10:28:13.844Z,69.4028
2023-05-10T10:29:14.443Z,69.7582
2023-05-10T10:30:15.065Z,69.0067
2023-05-10T10:31:15.618Z,68.8170
2023-05-10T10:32:16.382Z,69.3814
2023-05-10T10:33:27.708Z,69.4584
2023-05-10T10:34:18.724Z,70.0315
2023-05-10T10:35:19.165Z,67.9073
2023-05-10T10:36:19.771Z,68.3026
2023-05-10T10:37:20.440Z,68.1866
2023-05-10T10:38:20.849Z,67.3379
2023-05-10T10:39:21.399Z,66.5361
2023-05-10T10:40:21.953Z,66.3425
2023-05-10T10:41:22.582Z,67.1540
2023-05-10T10:42:22.940Z,67.4218
2023-05-10T10:43:23.532Z,67.1174
2023-05-10T10:44:24.124Z,67.1773
2023-05-10T10:45:24.722Z,66.9716
2023-05-10T10:46:26.139Z,66.3323
2023-05-10T10:47:27.366Z,67.9110
2023-05-10T10:48:27.419Z,67.4322
2023-05-10T10:49:28.454Z,67.1423
2023-05-10T10:50:29.266Z,66.0829
2023-05-10T10:51:30.376Z,67.1009
2023-05-10T10:52:31.598Z,66.9659
2023-05-10T10:53:32.013Z,67.1657
2023-05-10T10:54:32.162Z,66.5044
2023-05-10T10:55:32.754Z,67.0558
2023-05-10T10:56:35.210Z,66.6667
2023-05-10T10:57:34.445Z,66.5566
2023-05-10T10:58:35.450Z,66.7574
2023-05-10T10:59:36.559Z,67.6518
2023-05-10T11:00:37.852Z,65.9694
2023-05-10T11:01:38.784Z,65.9821
2023-05-10T11:02:39.135Z,67.0632
2023-05-10T11:03:39.430Z,67.0386
2023-05-10T11:04:40.509Z,67.0350
2023-05-10T11:05:40.529Z,66.8471
2023-05-10T11:06:41.715Z,66.7714
2023-05-10T11:07:42.799Z,67.1368
2023-05-10T11:08:43.795Z,66.3693
2023-05-10T11:09:44.887Z,67.1575
2023-05-10T11:10:46.104Z,66.8819
2023-05-10T11:11:47.063Z,67.2336
2023-05-10T11:12:48.192Z,67.2439
2023-05-10T11:13:50.842Z,66.9671
2023-05-10T11:14:50.193Z,66.7995
2023-05-10T11:15:51.258Z,66.8329
2023-05-10T11:16:51.369Z,67.1572
2023-05-10T11:17:52.596Z,67.3451
2023-05-10T11:18:52.650Z,67.0396
2023-05-10T11:19:52.962Z,67.7951
2023-05-10T11:20:53.249Z,67.4304
2023-05-10T11:21:54.594Z,68.2412
2023-05-10T11:22:55.533Z,68.3362
2023-05-10T11:23:56.646Z,67.5393
2023-05-10T11:24:57.178Z,68.2136
2023-05-10T11:25:58.375Z,67.4948
2023-05-10T11:26:59.435Z,69.1194
2023-05-10T11:28:00.637Z,68.2159
2023-05-10T11:29:01.627Z,68.7692
2023-05-10T11:30:05.100Z,67.9414
2023-05-10T11:31:05.313Z,67.0417
2023-05-10T11:32:05.474Z,65.7501
2023-05-10T11:33:06.621Z,65.7791
2023-05-10T11:34:06.693Z,65.4344
2023-05-10T11:35:07.771Z,65.0861
2023-05-10T11:36:08.819Z,64.6782
2023-05-10T11:37:10.164Z,64.4251
2023-05-10T11:38:11.112Z,65.1575
2023-05-10T11:39:12.289Z,65.7094
2023-05-10T11:40:13.548Z,65.9736
2023-05-10T11:41:13.517Z,65.9913
2023-05-10T11:42:14.297Z,64.8404
2023-05-10T11:43:14.314Z,64.8204
2023-05-10T11:44:15.320Z,65.1580
2023-05-10T11:45:16.378Z,65.0433
2023-05-10T11:46:16.411Z,63.7277
2023-05-10T11:47:16.981Z,64.5743
2023-05-10T11:48:18.035Z,64.5858
2023-05-10T11:49:19.124Z,64.1706
2023-05-10T11:50:20.391Z,64.2309
2023-05-10T11:51:21.488Z,64.5268
2023-05-10T11:52:21.716Z,64.2197
2023-05-10T11:53:24.811Z,63.4493
2023-05-10T11:54:22.977Z,62.6462
2023-05-10T11:55:23.975Z,63.0169
2023-05-10T11:56:25.202Z,63.6107
2023-05-10T11:57:25.258Z,63.4199
2023-05-10T11:58:26.445Z,63.2235
2023-05-10T11:59:27.399Z,62.6606
2023-05-10T12:00:27.800Z,61.7283
2023-05-10T12:01:28.761Z,62.2211
2023-05-10T12:02:28.861Z,62.3913
2023-05-10T12:03:30.167Z,62.7302
2023-05-10T12:04:31.017Z,62.1408
2023-05-10T12:05:31.828Z,61.9039
2023-05-10T12:06:31.786Z,61.1220
2023-05-10T12:07:32.945Z,61.0435
2023-05-10T12:08:33.026Z,60.5350
2023-05-10T12:09:43.088Z,59.5295
2023-05-10T12:10:34.306Z,58.6422
2023-05-10T12:11:35.446Z,59.0345
2023-05-10T12:12:36.670Z,60.2090
2023-05-10T12:13:37.897Z,60.6702
2023-05-10T12:14:39.074Z,59.4338
2023-05-10T12:15:40.250Z,59.6572
2023-05-10T12:16:41.851Z,60.7908
2023-05-10T12:17:43.514Z,61.3204
2023-05-10T12:18:43.921Z,60.4228
2023-05-10T12:19:44.608Z,60.7508
2023-05-10T12:20:45.088Z,61.6807
2023-05-10T12:21:46.294Z,61.5664
2023-05-10T12:22:47.470Z,62.5730
2023-05-10T12:23:48.429Z,63.8103
2023-05-10T12:24:49.581Z,63.6330
2023-05-10T12:25:49.618Z,65.8244
2023-05-10T12:26:50.902Z,69.3938
2023-05-10T12:27:52.042Z,72.0950
2023-05-10T12:28:52.038Z,72.6142
2023-05-10T12:29:52.056Z,72.8459
2023-05-10T12:30:53.225Z,72.7235
2023-05-10T12:31:53.403Z,73.2447
2023-05-10T12:32:53.777Z,72.0982
2023-05-10T12:33:55.113Z,71.5342
2023-05-10T12:34:56.031Z,71.3655
2023-05-10T12:35:57.295Z,72.1154
2023-05-10T12:36:58.441Z,71.8206
2023-05-10T12:37:58.461Z,71.6208
2023-05-10T12:38:59.518Z,71.6549
2023-05-10T12:40:00.834Z,72.3133
2023-05-10T12:41:01.026Z,73.2845
2023-05-10T12:42:01.969Z,74.0470
2023-05-10T12:43:02.188Z,73.9657
2023-05-10T12:44:02.412Z,74.1051
2023-05-10T12:45:03.584Z,75.2185
2023-05-10T12:46:04.948Z,75.0716
2023-05-10T12:47:05.035Z,75.1102
2023-05-10T12:48:06.060Z,75.5573
2023-05-10T12:49:11.718Z,76.4775
2023-05-10T12:50:11.879Z,76.4830
2023-05-10T12:51:12.955Z,76.1923
2023-05-10T12:52:14.121Z,75.2063
2023-05-10T12:53:15.290Z,74.6863
2023-05-10T12:54:15.379Z,75.3199
2023-05-10T12:55:16.485Z,75.4611
2023-05-10T12:56:17.702Z,75.9122
2023-05-10T12:57:18.890Z,75.5536
2023-05-10T12:58:35.068Z,75.5471
2023-05-10T12:59:23.778Z,75.0483
2023-05-10T13:00:23.653Z,75.2100
2023-05-10T13:01:23.943Z,74.6564
2023-05-10T13:02:24.050Z,74.4892
2023-05-10T13:03:24.213Z,75.0636
2023-05-10T13:04:25.298Z,74.9514